sensor_id;sensor_type;location;lat;lon;timestamp;P1;durP1;ratioP1;P2;durP2;ratioP2
56005;SDS011;41888;44.696;10.522;2023-05-10T00:01:39;14.05;;;6.53;;
56005;SDS011;41888;44.696;10.522;2023-05-10T00:04:05;9.65;;;6.20;;
56005;SDS011;41888;44.696;10.522;2023-05-10T00:06:31;13.48;;;6.32;;
56005;SDS011;41888;44.696;10.522;2023-05-10T00:08:58;12.93;;;6.88;;
56005;SDS011;41888;44.696;10.522;2023-05-10T00:11:24;18.38;;;7.10;;
56005;SDS011;41888;44.696;10.522;2023-05-10T00:13:50;11.90;;;6.80;;
56005;SDS011;41888;44.696;10.522;2023-05-10T00:16:16;11.95;;;7.57;;
56005;SDS011;41888;44.696;10.522;2023-05-10T00:18:42;11.50;;;6.43;;
56005;SDS011;41888;44.696;10.522;2023-05-10T00:21:08;12.73;;;6.80;;
56005;SDS011;41888;44.696;10.522;2023-05-10T00:23:35;11.93;;;6.97;;
56005;SDS011;41888;44.696;10.522;2023-05-10T00:26:01;11.18;;;7.00;;
56005;SDS011;41888;44.696;10.522;2023-05-10T00:28:27;11.80;;;6.75;;
56005;SDS011;41888;44.696;10.522;2023-05-10T00:30:54;11.32;;;6.60;;
56005;SDS011;41888;44.696;10.522;2023-05-10T00:33:20;10.25;;;6.88;;
56005;SDS011;41888;44.696;10.522;2023-05-10T00:35:46;13.00;;;7.55;;
56005;SDS011;41888;44.696;10.522;2023-05-10T00:38:13;14.30;;;7.35;;
56005;SDS011;41888;44.696;10.522;2023-05-10T00:40:39;13.77;;;7.78;;
56005;SDS011;41888;44.696;10.522;2023-05-10T00:43:06;11.55;;;7.50;;
56005;SDS011;41888;44.696;10.522;2023-05-10T00:45:32;16.52;;;8.32;;
56005;SDS011;41888;44.696;10.522;2023-05-10T00:48:01;13.13;;;8.18;;
56005;SDS011;41888;44.696;10.522;2023-05-10T00:50:28;13.50;;;7.60;;
56005;SDS011;41888;44.696;10.522;2023-05-10T00:52:57;14.68;;;8.38;;
56005;SDS011;41888;44.696;10.522;2023-05-10T00:55:24;13.48;;;8.35;;
56005;SDS011;41888;44.696;10.522;2023-05-10T00:57:51;15.93;;;8.73;;
56005;SDS011;41888;44.696;10.522;2023-05-10T01:00:18;16.92;;;8.40;;
56005;SDS011;41888;44.696;10.522;2023-05-10T01:02:45;13.70;;;8.95;;
56005;SDS011;41888;44.696;10.522;2023-05-10T01:05:11;16.50;;;8.05;;
56005;SDS011;41888;44.696;10.522;2023-05-10T01:07:38;15.18;;;8.40;;
56005;SDS011;41888;44.696;10.522;2023-05-10T01:10:07;18.42;;;10.50;;
56005;SDS011;41888;44.696;10.522;2023-05-10T01:12:35;17.48;;;8.98;;
56005;SDS011;41888;44.696;10.522;2023-05-10T01:15:05;15.32;;;8.77;;
56005;SDS011;41888;44.696;10.522;2023-05-10T01:17:33;17.33;;;10.07;;
56005;SDS011;41888;44.696;10.522;2023-05-10T01:20:04;14.75;;;9.43;;
56005;SDS011;41888;44.696;10.522;2023-05-10T01:28:35;17.65;;;9.68;;
56005;SDS011;41888;44.696;10.522;2023-05-10T01:34:08;18.55;;;9.55;;
56005;SDS011;41888;44.696;10.522;2023-05-10T01:40:02;15.25;;;9.63;;
56005;SDS011;41888;44.696;10.522;2023-05-10T01:42:11;13.13;;;8.23;;
56005;SDS011;41888;44.696;10.522;2023-05-10T01:44:44;18.33;;;8.82;;
56005;SDS011;41888;44.696;10.522;2023-05-10T01:47:41;16.73;;;8.85;;
56005;SDS011;41888;44.696;10.522;2023-05-10T01:50:10;15.48;;;9.27;;
56005;SDS011;41888;44.696;10.522;2023-05-10T01:52:53;13.77;;;8.80;;
56005;SDS011;41888;44.696;10.522;2023-05-10T01:55:23;13.13;;;8.00;;
56005;SDS011;41888;44.696;10.522;2023-05-10T01:57:55;14.27;;;7.85;;
56005;SDS011;41888;44.696;10.522;2023-05-10T02:00:36;16.25;;;8.88;;
56005;SDS011;41888;44.696;10.522;2023-05-10T02:03:08;13.40;;;7.65;;
56005;SDS011;41888;44.696;10.522;2023-05-10T02:05:37;12.57;;;8.23;;
56005;SDS011;41888;44.696;10.522;2023-05-10T02:08:07;12.15;;;7.10;;
56005;SDS011;41888;44.696;10.522;2023-05-10T02:10:34;13.40;;;8.13;;
56005;SDS011;41888;44.696;10.522;2023-05-10T02:13:01;14.00;;;8.32;;
56005;SDS011;41888;44.696;10.522;2023-05-10T02:15:28;13.20;;;8.05;;
56005;SDS011;41888;44.696;10.522;2023-05-10T02:17:56;14.00;;;8.02;;
56005;SDS011;41888;44.696;10.522;2023-05-10T02:20:25;11.18;;;7.47;;
56005;SDS011;41888;44.696;10.522;2023-05-10T02:22:52;13.77;;;7.20;;
56005;SDS011;41888;44.696;10.522;2023-05-10T02:25:21;13.50;;;6.63;;
56005;SDS011;41888;44.696;10.522;2023-05-10T02:27:48;16.02;;;8.07;;
56005;SDS011;41888;44.696;10.522;2023-05-10T02:30:18;11.70;;;7.25;;
56005;SDS011;41888;44.696;10.522;2023-05-10T02:32:45;13.48;;;7.22;;
56005;SDS011;41888;44.696;10.522;2023-05-10T02:35:14;11.38;;;7.22;;
56005;SDS011;41888;44.696;10.522;2023-05-10T02:37:41;13.95;;;7.55;;
56005;SDS011;41888;44.696;10.522;2023-05-10T02:40:08;16.33;;;8.52;;
56005;SDS011;41888;44.696;10.522;2023-05-10T02:42:37;13.27;;;7.25;;
56005;SDS011;41888;44.696;10.522;2023-05-10T02:45:07;14.23;;;7.97;;
56005;SDS011;41888;44.696;10.522;2023-05-10T02:47:37;14.63;;;7.32;;
56005;SDS011;41888;44.696;10.522;2023-05-10T02:50:04;10.25;;;6.07;;
56005;SDS011;41888;44.696;10.522;2023-05-10T02:52:36;9.35;;;6.55;;
56005;SDS011;41888;44.696;10.522;2023-05-10T02:55:09;11.55;;;7.43;;
56005;SDS011;41888;44.696;10.522;2023-05-10T02:57:41;9.73;;;5.88;;
56005;SDS011;41888;44.696;10.522;2023-05-10T03:00:16;9.40;;;6.15;;
56005;SDS011;41888;44.696;10.522;2023-05-10T03:02:42;11.75;;;5.63;;
56005;SDS011;41888;44.696;10.522;2023-05-10T03:05:08;10.10;;;5.82;;
56005;SDS011;41888;44.696;10.522;2023-05-10T03:07:34;10.45;;;6.97;;
56005;SDS011;41888;44.696;10.522;2023-05-10T03:10:01;8.65;;;5.45;;
56005;SDS011;41888;44.696;10.522;2023-05-10T03:12:33;13.00;;;6.53;;
56005;SDS011;41888;44.696;10.522;2023-05-10T03:20:51;9.80;;;6.18;;
56005;SDS011;41888;44.696;10.522;2023-05-10T03:23:30;10.07;;;6.03;;
56005;SDS011;41888;44.696;10.522;2023-05-10T03:26:01;10.43;;;6.63;;
56005;SDS011;41888;44.696;10.522;2023-05-10T03:28:29;12.13;;;6.20;;
56005;SDS011;41888;44.696;10.522;2023-05-10T03:30:57;8.70;;;6.05;;
56005;SDS011;41888;44.696;10.522;2023-05-10T03:33:25;9.85;;;6.10;;
56005;SDS011;41888;44.696;10.522;2023-05-10T03:35:51;12.30;;;7.70;;
56005;SDS011;41888;44.696;10.522;2023-05-10T03:38:17;13.68;;;7.00;;
56005;SDS011;41888;44.696;10.522;2023-05-10T03:40:43;11.65;;;6.63;;
56005;SDS011;41888;44.696;10.522;2023-05-10T03:43:10;11.93;;;6.65;;
56005;SDS011;41888;44.696;10.522;2023-05-10T03:45:36;11.70;;;7.45;;
56005;SDS011;41888;44.696;10.522;2023-05-10T03:48:04;13.20;;;7.10;;
56005;SDS011;41888;44.696;10.522;2023-05-10T03:50:30;11.82;;;7.18;;
56005;SDS011;41888;44.696;10.522;2023-05-10T03:52:56;10.13;;;6.45;;
56005;SDS011;41888;44.696;10.522;2023-05-10T03:55:23;13.77;;;7.57;;
56005;SDS011;41888;44.696;10.522;2023-05-10T03:57:49;12.45;;;7.07;;
56005;SDS011;41888;44.696;10.522;2023-05-10T04:00:15;12.90;;;7.85;;
56005;SDS011;41888;44.696;10.522;2023-05-10T04:02:42;11.27;;;7.55;;
56005;SDS011;41888;44.696;10.522;2023-05-10T04:05:08;12.20;;;7.20;;
56005;SDS011;41888;44.696;10.522;2023-05-10T04:07:35;15.75;;;8.65;;
56005;SDS011;41888;44.696;10.522;2023-05-10T04:10:01;13.73;;;7.78;;
56005;SDS011;41888;44.696;10.522;2023-05-10T04:12:27;14.63;;;9.20;;
56005;SDS011;41888;44.696;10.522;2023-05-10T04:14:53;12.07;;;7.32;;
56005;SDS011;41888;44.696;10.522;2023-05-10T04:17:19;11.88;;;7.30;;
56005;SDS011;41888;44.696;10.522;2023-05-10T04:19:45;11.90;;;8.02;;
56005;SDS011;41888;44.696;10.522;2023-05-10T04:22:12;12.93;;;8.13;;
56005;SDS011;41888;44.696;10.522;2023-05-10T04:24:38;13.52;;;7.68;;
56005;SDS011;41888;44.696;10.522;2023-05-10T04:27:04;14.32;;;8.25;;
56005;SDS011;41888;44.696;10.522;2023-05-10T04:29:31;12.93;;;7.88;;
56005;SDS011;41888;44.696;10.522;2023-05-10T04:31:57;12.48;;;7.03;;
56005;SDS011;41888;44.696;10.522;2023-05-10T04:34:23;11.45;;;7.78;;
56005;SDS011;41888;44.696;10.522;2023-05-10T04:36:50;15.07;;;7.82;;
56005;SDS011;41888;44.696;10.522;2023-05-10T04:39:16;11.98;;;6.68;;
56005;SDS011;41888;44.696;10.522;2023-05-10T04:41:43;12.45;;;7.38;;
56005;SDS011;41888;44.696;10.522;2023-05-10T04:44:09;12.40;;;6.93;;
56005;SDS011;41888;44.696;10.522;2023-05-10T04:46:35;12.57;;;6.55;;
56005;SDS011;41888;44.696;10.522;2023-05-10T04:49:01;11.85;;;6.32;;
56005;SDS011;41888;44.696;10.522;2023-05-10T04:51:27;11.32;;;6.60;;
56005;SDS011;41888;44.696;10.522;2023-05-10T04:53:54;11.95;;;6.22;;
56005;SDS011;41888;44.696;10.522;2023-05-10T04:56:20;9.80;;;6.63;;
56005;SDS011;41888;44.696;10.522;2023-05-10T04:58:46;12.55;;;6.75;;
56005;SDS011;41888;44.696;10.522;2023-05-10T05:01:13;11.32;;;6.38;;
56005;SDS011;41888;44.696;10.522;2023-05-10T05:03:39;10.57;;;6.25;;
56005;SDS011;41888;44.696;10.522;2023-05-10T05:06:05;12.32;;;6.65;;
56005;SDS011;41888;44.696;10.522;2023-05-10T05:08:31;13.15;;;6.75;;
56005;SDS011;41888;44.696;10.522;2023-05-10T05:10:58;9.90;;;6.03;;
56005;SDS011;41888;44.696;10.522;2023-05-10T05:13:24;10.02;;;6.50;;
56005;SDS011;41888;44.696;10.522;2023-05-10T05:15:50;10.93;;;6.07;;
56005;SDS011;41888;44.696;10.522;2023-05-10T05:18:16;11.10;;;7.13;;
56005;SDS011;41888;44.696;10.522;2023-05-10T05:20:43;11.20;;;6.90;;
56005;SDS011;41888;44.696;10.522;2023-05-10T05:23:09;8.57;;;5.55;;
56005;SDS011;41888;44.696;10.522;2023-05-10T05:25:35;9.23;;;5.47;;
56005;SDS011;41888;44.696;10.522;2023-05-10T05:28:01;9.95;;;6.05;;
56005;SDS011;41888;44.696;10.522;2023-05-10T05:30:28;7.22;;;5.00;;
56005;SDS011;41888;44.696;10.522;2023-05-10T05:32:54;8.88;;;5.35;;
56005;SDS011;41888;44.696;10.522;2023-05-10T05:35:20;9.05;;;5.93;;
56005;SDS011;41888;44.696;10.522;2023-05-10T05:37:46;11.65;;;5.90;;
56005;SDS011;41888;44.696;10.522;2023-05-10T05:40:12;9.82;;;5.28;;
56005;SDS011;41888;44.696;10.522;2023-05-10T05:42:39;11.13;;;5.15;;
56005;SDS011;41888;44.696;10.522;2023-05-10T05:45:05;7.75;;;4.97;;
56005;SDS011;41888;44.696;10.522;2023-05-10T05:47:33;8.73;;;5.53;;
56005;SDS011;41888;44.696;10.522;2023-05-10T05:49:59;9.65;;;5.85;;
56005;SDS011;41888;44.696;10.522;2023-05-10T05:52:26;8.48;;;5.18;;
56005;SDS011;41888;44.696;10.522;2023-05-10T05:54:52;8.25;;;5.05;;
56005;SDS011;41888;44.696;10.522;2023-05-10T05:57:18;8.88;;;5.38;;
56005;SDS011;41888;44.696;10.522;2023-05-10T05:59:44;8.27;;;4.90;;
56005;SDS011;41888;44.696;10.522;2023-05-10T06:02:10;10.13;;;5.45;;
56005;SDS011;41888;44.696;10.522;2023-05-10T06:04:37;7.53;;;4.88;;
56005;SDS011;41888;44.696;10.522;2023-05-10T06:07:03;7.18;;;5.03;;
56005;SDS011;41888;44.696;10.522;2023-05-10T06:09:29;8.20;;;5.07;;
56005;SDS011;41888;44.696;10.522;2023-05-10T06:11:55;9.60;;;4.90;;
56005;SDS011;41888;44.696;10.522;2023-05-10T06:14:22;7.05;;;4.88;;
56005;SDS011;41888;44.696;10.522;2023-05-10T06:16:48;9.07;;;4.70;;
56005;SDS011;41888;44.696;10.522;2023-05-10T06:19:14;8.82;;;5.63;;
56005;SDS011;41888;44.696;10.522;2023-05-10T06:21:41;9.32;;;4.88;;
56005;SDS011;41888;44.696;10.522;2023-05-10T06:24:07;9.13;;;5.57;;
56005;SDS011;41888;44.696;10.522;2023-05-10T06:26:33;8.90;;;5.47;;
56005;SDS011;41888;44.696;10.522;2023-05-10T06:28:59;11.00;;;5.30;;
56005;SDS011;41888;44.696;10.522;2023-05-10T06:31:26;8.10;;;4.63;;
56005;SDS011;41888;44.696;10.522;2023-05-10T06:34:03;8.43;;;4.97;;
56005;SDS011;41888;44.696;10.522;2023-05-10T06:36:29;7.25;;;5.22;;
56005;SDS011;41888;44.696;10.522;2023-05-10T06:38:55;10.40;;;5.43;;
56005;SDS011;41888;44.696;10.522;2023-05-10T06:41:21;10.70;;;6.03;;
56005;SDS011;41888;44.696;10.522;2023-05-10T06:43:48;8.85;;;5.60;;
56005;SDS011;41888;44.696;10.522;2023-05-10T06:46:14;11.77;;;5.35;;
56005;SDS011;41888;44.696;10.522;2023-05-10T06:48:41;7.05;;;5.30;;
56005;SDS011;41888;44.696;10.522;2023-05-10T06:51:07;11.57;;;5.20;;
56005;SDS011;41888;44.696;10.522;2023-05-10T06:53:33;7.38;;;5.15;;
56005;SDS011;41888;44.696;10.522;2023-05-10T06:55:59;8.68;;;5.68;;
56005;SDS011;41888;44.696;10.522;2023-05-10T06:58:25;8.32;;;5.25;;
56005;SDS011;41888;44.696;10.522;2023-05-10T07:00:51;7.95;;;5.93;;
56005;SDS011;41888;44.696;10.522;2023-05-10T07:03:17;9.23;;;6.13;;
56005;SDS011;41888;44.696;10.522;2023-05-10T07:05:44;8.48;;;5.15;;
56005;SDS011;41888;44.696;10.522;2023-05-10T07:08:10;7.20;;;4.75;;
56005;SDS011;41888;44.696;10.522;2023-05-10T07:10:36;9.10;;;5.38;;
56005;SDS011;41888;44.696;10.522;2023-05-10T07:13:02;14.15;;;8.95;;
56005;SDS011;41888;44.696;10.522;2023-05-10T07:15:28;11.30;;;7.43;;
56005;SDS011;41888;44.696;10.522;2023-05-10T07:17:55;10.82;;;7.18;;
56005;SDS011;41888;44.696;10.522;2023-05-10T07:20:21;10.73;;;7.57;;
56005;SDS011;41888;44.696;10.522;2023-05-10T07:22:47;13.10;;;9.20;;
56005;SDS011;41888;44.696;10.522;2023-05-10T07:25:13;14.85;;;8.93;;
56005;SDS011;41888;44.696;10.522;2023-05-10T07:27:39;14.68;;;7.40;;
56005;SDS011;41888;44.696;10.522;2023-05-10T07:30:05;17.42;;;6.82;;
56005;SDS011;41888;44.696;10.522;2023-05-10T07:32:32;12.98;;;7.22;;
56005;SDS011;41888;44.696;10.522;2023-05-10T07:34:58;13.65;;;7.28;;
56005;SDS011;41888;44.696;10.522;2023-05-10T07:37:25;19.63;;;9.98;;
56005;SDS011;41888;44.696;10.522;2023-05-10T07:39:51;18.20;;;11.10;;
56005;SDS011;41888;44.696;10.522;2023-05-10T07:42:17;16.00;;;8.63;;
56005;SDS011;41888;44.696;10.522;2023-05-10T07:44:43;12.82;;;6.65;;
56005;SDS011;41888;44.696;10.522;2023-05-10T07:47:10;10.27;;;5.88;;
56005;SDS011;41888;44.696;10.522;2023-05-10T07:49:36;9.60;;;6.07;;
56005;SDS011;41888;44.696;10.522;2023-05-10T07:52:03;8.75;;;5.70;;
56005;SDS011;41888;44.696;10.522;2023-05-10T07:54:29;11.80;;;6.00;;
56005;SDS011;41888;44.696;10.522;2023-05-10T07:56:55;21.73;;;9.40;;
56005;SDS011;41888;44.696;10.522;2023-05-10T07:59:21;10.88;;;5.75;;
56005;SDS011;41888;44.696;10.522;2023-05-10T08:01:47;10.52;;;5.65;;
56005;SDS011;41888;44.696;10.522;2023-05-10T08:04:14;8.10;;;5.40;;
56005;SDS011;41888;44.696;10.522;2023-05-10T08:06:40;9.90;;;5.63;;
56005;SDS011;41888;44.696;10.522;2023-05-10T08:09:06;9.95;;;5.55;;
56005;SDS011;41888;44.696;10.522;2023-05-10T08:11:33;10.50;;;5.47;;
56005;SDS011;41888;44.696;10.522;2023-05-10T08:14:00;9.02;;;5.93;;
56005;SDS011;41888;44.696;10.522;2023-05-10T08:16:26;9.02;;;6.25;;
56005;SDS011;41888;44.696;10.522;2023-05-10T08:18:52;12.90;;;6.00;;
56005;SDS011;41888;44.696;10.522;2023-05-10T08:21:20;9.57;;;6.35;;
56005;SDS011;41888;44.696;10.522;2023-05-10T08:23:46;12.38;;;5.40;;
56005;SDS011;41888;44.696;10.522;2023-05-10T08:26:12;11.57;;;5.60;;
56005;SDS011;41888;44.696;10.522;2023-05-10T08:28:38;8.90;;;5.35;;
56005;SDS011;41888;44.696;10.522;2023-05-10T08:31:05;10.23;;;6.55;;
56005;SDS011;41888;44.696;10.522;2023-05-10T08:33:31;11.13;;;6.32;;
56005;SDS011;41888;44.696;10.522;2023-05-10T08:35:57;10.50;;;5.80;;
56005;SDS011;41888;44.696;10.522;2023-05-10T08:38:23;11.18;;;5.07;;
56005;SDS011;41888;44.696;10.522;2023-05-10T08:40:50;7.40;;;5.05;;
56005;SDS011;41888;44.696;10.522;2023-05-10T08:43:24;8.93;;;5.60;;
56005;SDS011;41888;44.696;10.522;2023-05-10T08:45:56;11.23;;;4.82;;
56005;SDS011;41888;44.696;10.522;2023-05-10T08:48:25;8.25;;;5.13;;
56005;SDS011;41888;44.696;10.522;2023-05-10T08:50:54;8.63;;;5.40;;
56005;SDS011;41888;44.696;10.522;2023-05-10T08:53:24;7.80;;;5.13;;
56005;SDS011;41888;44.696;10.522;2023-05-10T08:55:52;9.27;;;4.88;;
56005;SDS011;41888;44.696;10.522;2023-05-10T08:58:19;7.28;;;4.07;;
56005;SDS011;41888;44.696;10.522;2023-05-10T09:00:46;7.68;;;4.53;;
56005;SDS011;41888;44.696;10.522;2023-05-10T09:03:14;10.77;;;4.93;;
56005;SDS011;41888;44.696;10.522;2023-05-10T09:05:41;5.97;;;4.25;;
56005;SDS011;41888;44.696;10.522;2023-05-10T09:08:09;8.68;;;5.05;;
56005;SDS011;41888;44.696;10.522;2023-05-10T09:10:37;8.50;;;4.78;;
56005;SDS011;41888;44.696;10.522;2023-05-10T09:13:05;7.47;;;4.35;;
56005;SDS011;41888;44.696;10.522;2023-05-10T09:15:32;6.85;;;4.38;;
56005;SDS011;41888;44.696;10.522;2023-05-10T09:17:58;6.28;;;3.88;;
56005;SDS011;41888;44.696;10.522;2023-05-10T09:20:27;8.88;;;4.70;;
56005;SDS011;41888;44.696;10.522;2023-05-10T09:22:53;5.80;;;3.83;;
56005;SDS011;41888;44.696;10.522;2023-05-10T09:25:19;7.97;;;4.35;;
56005;SDS011;41888;44.696;10.522;2023-05-10T09:27:46;11.90;;;4.35;;
56005;SDS011;41888;44.696;10.522;2023-05-10T09:30:17;7.50;;;4.28;;
56005;SDS011;41888;44.696;10.522;2023-05-10T09:32:54;6.43;;;4.20;;
56005;SDS011;41888;44.696;10.522;2023-05-10T09:35:23;7.20;;;4.35;;
56005;SDS011;41888;44.696;10.522;2023-05-10T09:37:51;6.07;;;4.47;;
56005;SDS011;41888;44.696;10.522;2023-05-10T09:40:20;5.63;;;4.15;;
56005;SDS011;41888;44.696;10.522;2023-05-10T09:45:27;7.20;;;4.65;;
56005;SDS011;41888;44.696;10.522;2023-05-10T09:47:58;8.43;;;4.07;;
56005;SDS011;41888;44.696;10.522;2023-05-10T09:50:28;7.97;;;4.38;;
56005;SDS011;41888;44.696;10.522;2023-05-10T09:52:56;7.25;;;4.50;;
56005;SDS011;41888;44.696;10.522;2023-05-10T09:55:26;6.32;;;3.47;;
56005;SDS011;41888;44.696;10.522;2023-05-10T09:58:05;6.93;;;4.70;;
56005;SDS011;41888;44.696;10.522;2023-05-10T10:00:45;6.18;;;3.83;;
56005;SDS011;41888;44.696;10.522;2023-05-10T10:03:13;6.47;;;4.22;;
56005;SDS011;41888;44.696;10.522;2023-05-10T10:05:42;7.53;;;3.92;;
56005;SDS011;41888;44.696;10.522;2023-05-10T10:08:09;9.90;;;4.22;;
56005;SDS011;41888;44.696;10.522;2023-05-10T10:10:37;7.05;;;4.07;;
56005;SDS011;41888;44.696;10.522;2023-05-10T10:13:05;6.50;;;3.92;;
56005;SDS011;41888;44.696;10.522;2023-05-10T10:15:32;7.68;;;4.03;;
56005;SDS011;41888;44.696;10.522;2023-05-10T10:17:59;9.82;;;4.18;;
56005;SDS011;41888;44.696;10.522;2023-05-10T10:20:25;6.65;;;4.53;;
56005;SDS011;41888;44.696;10.522;2023-05-10T10:22:53;7.03;;;3.65;;
56005;SDS011;41888;44.696;10.522;2023-05-10T10:25:19;7.03;;;3.88;;
56005;SDS011;41888;44.696;10.522;2023-05-10T10:30:29;6.28;;;3.97;;
56005;SDS011;41888;44.696;10.522;2023-05-10T10:35:32;5.05;;;3.40;;
56005;SDS011;41888;44.696;10.522;2023-05-10T10:38:00;4.82;;;3.17;;
56005;SDS011;41888;44.696;10.522;2023-05-10T10:42:53;6.90;;;4.10;;
56005;SDS011;41888;44.696;10.522;2023-05-10T10:45:20;5.05;;;3.67;;
56005;SDS011;41888;44.696;10.522;2023-05-10T10:47:47;5.60;;;3.83;;
56005;SDS011;41888;44.696;10.522;2023-05-10T10:50:15;5.72;;;3.75;;
56005;SDS011;41888;44.696;10.522;2023-05-10T10:52:42;7.13;;;3.67;;
56005;SDS011;41888;44.696;10.522;2023-05-10T10:55:09;5.78;;;3.63;;
56005;SDS011;41888;44.696;10.522;2023-05-10T10:57:44;5.72;;;3.75;;
56005;SDS011;41888;44.696;10.522;2023-05-10T11:00:25;4.85;;;3.63;;
56005;SDS011;41888;44.696;10.522;2023-05-10T11:08:31;5.72;;;3.58;;
56005;SDS011;41888;44.696;10.522;2023-05-10T11:13:32;5.57;;;3.70;;
56005;SDS011;41888;44.696;10.522;2023-05-10T11:16:22;5.85;;;3.63;;
56005;SDS011;41888;44.696;10.522;2023-05-10T11:21:22;5.57;;;3.58;;
56005;SDS011;41888;44.696;10.522;2023-05-10T11:23:49;5.75;;;3.80;;
56005;SDS011;41888;44.696;10.522;2023-05-10T11:26:30;5.32;;;4.32;;
56005;SDS011;41888;44.696;10.522;2023-05-10T11:28:58;5.05;;;3.80;;
56005;SDS011;41888;44.696;10.522;2023-05-10T11:31:26;5.18;;;3.20;;
56005;SDS011;41888;44.696;10.522;2023-05-10T11:33:54;5.47;;;3.10;;
56005;SDS011;41888;44.696;10.522;2023-05-10T11:36:22;6.25;;;3.45;;
56005;SDS011;41888;44.696;10.522;2023-05-10T11:38:51;4.82;;;3.05;;
56005;SDS011;41888;44.696;10.522;2023-05-10T11:41:18;5.85;;;3.58;;
56005;SDS011;41888;44.696;10.522;2023-05-10T11:43:51;4.72;;;3.33;;
56005;SDS011;41888;44.696;10.522;2023-05-10T11:46:20;6.88;;;3.40;;
56005;SDS011;41888;44.696;10.522;2023-05-10T11:48:51;4.65;;;3.70;;
56005;SDS011;41888;44.696;10.522;2023-05-10T11:51:20;5.63;;;3.75;;
56005;SDS011;41888;44.696;10.522;2023-05-10T11:53:47;5.57;;;3.70;;
56005;SDS011;41888;44.696;10.522;2023-05-10T11:56:15;4.82;;;3.67;;
56005;SDS011;41888;44.696;10.522;2023-05-10T11:58:41;5.75;;;3.88;;
56005;SDS011;41888;44.696;10.522;2023-05-10T12:01:07;6.65;;;3.78;;
56005;SDS011;41888;44.696;10.522;2023-05-10T12:03:35;5.68;;;3.58;;
56005;SDS011;41888;44.696;10.522;2023-05-10T12:06:02;7.25;;;3.72;;
56005;SDS011;41888;44.696;10.522;2023-05-10T12:08:29;5.95;;;2.95;;
56005;SDS011;41888;44.696;10.522;2023-05-10T12:11:06;4.75;;;3.10;;
56005;SDS011;41888;44.696;10.522;2023-05-10T12:13:38;5.38;;;3.28;;
56005;SDS011;41888;44.696;10.522;2023-05-10T12:16:21;4.88;;;3.22;;
56005;SDS011;41888;44.696;10.522;2023-05-10T12:18:49;4.93;;;3.33;;
56005;SDS011;41888;44.696;10.522;2023-05-10T12:21:16;5.13;;;3.10;;
56005;SDS011;41888;44.696;10.522;2023-05-10T12:23:44;4.50;;;3.25;;
56005;SDS011;41888;44.696;10.522;2023-05-10T12:26:12;5.32;;;2.97;;
56005;SDS011;41888;44.696;10.522;2023-05-10T12:28:39;5.55;;;3.42;;
56005;SDS011;41888;44.696;10.522;2023-05-10T12:31:05;5.40;;;3.38;;
56005;SDS011;41888;44.696;10.522;2023-05-10T12:33:36;6.72;;;3.38;;
56005;SDS011;41888;44.696;10.522;2023-05-10T12:36:04;6.47;;;3.55;;
56005;SDS011;41888;44.696;10.522;2023-05-10T12:38:35;4.95;;;3.25;;
56005;SDS011;41888;44.696;10.522;2023-05-10T12:41:11;5.68;;;2.92;;
56005;SDS011;41888;44.696;10.522;2023-05-10T12:43:40;5.97;;;3.58;;
56005;SDS011;41888;44.696;10.522;2023-05-10T12:46:10;5.55;;;3.33;;
56005;SDS011;41888;44.696;10.522;2023-05-10T12:48:40;5.38;;;3.88;;
56005;SDS011;41888;44.696;10.522;2023-05-10T12:51:08;6.10;;;3.47;;
56005;SDS011;41888;44.696;10.522;2023-05-10T12:53:37;7.07;;;3.40;;
56005;SDS011;41888;44.696;10.522;2023-05-10T12:56:06;6.78;;;3.65;;
56005;SDS011;41888;44.696;10.522;2023-05-10T12:58:33;7.15;;;3.60;;
56005;SDS011;41888;44.696;10.522;2023-05-10T13:01:00;5.93;;;3.53;;
56005;SDS011;41888;44.696;10.522;2023-05-10T13:03:27;6.82;;;3.72;;
56005;SDS011;41888;44.696;10.522;2023-05-10T13:05:53;6.32;;;3.78;;
56005;SDS011;41888;44.696;10.522;2023-05-10T13:08:19;5.20;;;3.40;;
56005;SDS011;41888;44.696;10.522;2023-05-10T13:10:46;7.03;;;3.20;;
56005;SDS011;41888;44.696;10.522;2023-05-10T13:13:12;5.03;;;3.35;;
56005;SDS011;41888;44.696;10.522;2023-05-10T13:15:39;4.32;;;2.97;;
56005;SDS011;41888;44.696;10.522;2023-05-10T13:18:05;4.80;;;3.10;;
56005;SDS011;41888;44.696;10.522;2023-05-10T13:20:31;5.93;;;3.50;;
56005;SDS011;41888;44.696;10.522;2023-05-10T13:22:57;5.00;;;3.40;;
56005;SDS011;41888;44.696;10.522;2023-05-10T13:25:23;3.67;;;2.92;;
56005;SDS011;41888;44.696;10.522;2023-05-10T13:27:49;5.32;;;2.75;;
56005;SDS011;41888;44.696;10.522;2023-05-10T13:30:16;5.60;;;3.25;;
56005;SDS011;41888;44.696;10.522;2023-05-10T13:32:42;4.97;;;3.53;;
56005;SDS011;41888;44.696;10.522;2023-05-10T13:35:08;3.80;;;2.67;;
56005;SDS011;41888;44.696;10.522;2023-05-10T13:37:34;4.22;;;2.58;;
56005;SDS011;41888;44.696;10.522;2023-05-10T13:40:02;7.35;;;3.25;;
56005;SDS011;41888;44.696;10.522;2023-05-10T13:42:29;3.55;;;2.83;;
56005;SDS011;41888;44.696;10.522;2023-05-10T13:44:56;5.07;;;3.38;;
56005;SDS011;41888;44.696;10.522;2023-05-10T13:47:23;5.38;;;3.47;;
56005;SDS011;41888;44.696;10.522;2023-05-10T13:49:49;5.97;;;4.32;;
56005;SDS011;41888;44.696;10.522;2023-05-10T13:52:15;3.90;;;3.15;;
56005;SDS011;41888;44.696;10.522;2023-05-10T13:54:41;6.65;;;3.53;;
56005;SDS011;41888;44.696;10.522;2023-05-10T13:57:07;5.47;;;3.83;;
56005;SDS011;41888;44.696;10.522;2023-05-10T13:59:34;5.45;;;3.38;;
56005;SDS011;41888;44.696;10.522;2023-05-10T14:02:00;4.45;;;3.35;;
56005;SDS011;41888;44.696;10.522;2023-05-10T14:04:29;3.70;;;2.70;;
56005;SDS011;41888;44.696;10.522;2023-05-10T14:06:56;5.00;;;3.20;;
56005;SDS011;41888;44.696;10.522;2023-05-10T14:09:22;3.45;;;2.30;;
56005;SDS011;41888;44.696;10.522;2023-05-10T14:11:49;3.95;;;2.60;;
56005;SDS011;41888;44.696;10.522;2023-05-10T14:14:15;3.97;;;2.50;;
56005;SDS011;41888;44.696;10.522;2023-05-10T14:16:42;4.07;;;3.10;;
56005;SDS011;41888;44.696;10.522;2023-05-10T14:19:09;4.97;;;3.22;;
56005;SDS011;41888;44.696;10.522;2023-05-10T14:21:36;4.13;;;2.60;;
56005;SDS011;41888;44.696;10.522;2023-05-10T14:24:03;3.47;;;2.40;;
56005;SDS011;41888;44.696;10.522;2023-05-10T14:26:29;5.05;;;2.70;;
56005;SDS011;41888;44.696;10.522;2023-05-10T14:28:56;3.42;;;2.47;;
56005;SDS011;41888;44.696;10.522;2023-05-10T14:31:22;2.47;;;2.20;;
56005;SDS011;41888;44.696;10.522;2023-05-10T14:33:50;5.28;;;2.63;;
56005;SDS011;41888;44.696;10.522;2023-05-10T14:36:17;4.35;;;3.15;;
56005;SDS011;41888;44.696;10.522;2023-05-10T14:38:43;2.92;;;2.20;;
56005;SDS011;41888;44.696;10.522;2023-05-10T14:41:09;3.55;;;2.60;;
56005;SDS011;41888;44.696;10.522;2023-05-10T14:43:39;3.67;;;2.90;;
56005;SDS011;41888;44.696;10.522;2023-05-10T14:46:06;3.85;;;2.42;;
56005;SDS011;41888;44.696;10.522;2023-05-10T14:48:32;3.97;;;2.95;;
56005;SDS011;41888;44.696;10.522;2023-05-10T14:50:58;4.05;;;2.50;;
56005;SDS011;41888;44.696;10.522;2023-05-10T14:53:24;5.25;;;3.53;;
56005;SDS011;41888;44.696;10.522;2023-05-10T14:55:51;3.80;;;2.65;;
56005;SDS011;41888;44.696;10.522;2023-05-10T14:58:17;3.65;;;2.55;;
56005;SDS011;41888;44.696;10.522;2023-05-10T15:00:43;3.83;;;2.72;;
56005;SDS011;41888;44.696;10.522;2023-05-10T15:03:09;4.00;;;2.95;;
56005;SDS011;41888;44.696;10.522;2023-05-10T15:05:35;5.07;;;2.97;;
56005;SDS011;41888;44.696;10.522;2023-05-10T15:08:02;6.13;;;3.90;;
56005;SDS011;41888;44.696;10.522;2023-05-10T15:10:30;3.58;;;2.58;;